createdAt,value
2017-12-15T00:02:11.648Z,84.80
2017-12-15T00:04:40.072Z,84.66
2017-12-15T00:07:12.969Z,85.04
2017-12-15T00:09:41.236Z,85.36
2017-12-15T00:12:12.968Z,85.44
2017-12-15T00:14:41.354Z,84.76
2017-12-15T00:17:12.953Z,84.71
2017-12-15T00:19:41.257Z,84.61
2017-12-15T00:22:13.076Z,84.51
2017-12-15T00:24:41.357Z,84.01
2017-12-15T00:27:13.304Z,83.85
2017-12-15T00:29:41.591Z,84.18
2017-12-15T00:32:11.735Z,84.50
2017-12-15T00:34:40.018Z,84.33
2017-12-15T00:37:13.965Z,83.76
2017-12-15T00:39:42.245Z,83.82
2017-12-15T00:42:12.081Z,84.26
2017-12-15T00:44:40.364Z,83.90
2017-12-15T00:47:12.391Z,84.46
2017-12-15T00:49:40.674Z,84.66
2017-12-15T00:52:12.697Z,84.53
2017-12-15T00:54:40.974Z,84.58
2017-12-15T00:57:12.960Z,84.54
2017-12-15T00:59:41.229Z,85.55
2017-12-15T01:02:12.592Z,86.14
2017-12-15T01:04:41.489Z,86.39
2017-12-15T01:07:12.720Z,84.88
2017-12-15T01:09:41.092Z,83.07
2017-12-15T01:12:13.138Z,82.98
2017-12-15T01:14:42.270Z,82.92
2017-12-15T01:17:12.493Z,83.60
2017-12-15T01:19:40.781Z,83.86
2017-12-15T01:22:12.006Z,84.12
2017-12-15T01:24:40.315Z,83.57
2017-12-15T01:27:12.433Z,83.68
2017-12-15T01:29:40.713Z,84.07
2017-12-15T01:32:12.201Z,84.06
2017-12-15T01:34:41.329Z,84.65
2017-12-15T01:37:11.272Z,85.08
2017-12-15T01:39:39.547Z,84.72
2017-12-15T01:42:11.610Z,84.33
2017-12-15T01:44:39.886Z,84.66
2017-12-15T01:47:11.940Z,84.92
2017-12-15T01:49:40.348Z,85.12
2017-12-15T01:52:11.709Z,85.17
2017-12-15T01:54:39.982Z,85.16
2017-12-15T01:57:11.552Z,85.93
2017-12-15T01:59:39.825Z,86.15
2017-12-15T02:02:14.213Z,86.77
2017-12-15T02:04:42.473Z,87.01
2017-12-15T02:07:10.773Z,87.24
2017-12-15T02:09:39.163Z,87.45
2017-12-15T02:12:10.641Z,87.79
2017-12-15T02:14:38.930Z,87.99
2017-12-15T02:17:14.034Z,88.21
2017-12-15T02:19:42.369Z,88.06
2017-12-15T02:22:11.581Z,87.59
2017-12-15T02:24:39.866Z,87.24
2017-12-15T02:27:11.080Z,86.59
2017-12-15T02:29:39.364Z,85.96
2017-12-15T02:32:11.015Z,85.84
2017-12-15T02:34:39.286Z,85.40
2017-12-15T02:37:14.461Z,85.53
2017-12-15T02:39:42.740Z,85.22
2017-12-15T02:42:11.252Z,85.59
2017-12-15T02:44:39.537Z,86.37
2017-12-15T02:47:11.063Z,86.52
2017-12-15T02:49:39.343Z,86.07
2017-12-15T02:52:10.868Z,85.21
2017-12-15T02:54:39.186Z,85.09
2017-12-15T02:57:14.817Z,85.31
2017-12-15T02:59:43.095Z,85.30
2017-12-15T03:02:11.374Z,85.30
2017-12-15T03:04:39.635Z,84.78
2017-12-15T03:07:10.942Z,84.61
2017-12-15T03:09:39.908Z,83.94
2017-12-15T03:12:12.028Z,83.96
2017-12-15T03:14:40.301Z,83.75
2017-12-15T03:17:11.920Z,83.33
2017-12-15T03:19:40.193Z,83.53
2017-12-15T03:22:11.783Z,83.04
2017-12-15T03:24:40.051Z,82.90
2017-12-15T03:27:10.868Z,83.02
2017-12-15T03:29:39.139Z,82.78
2017-12-15T03:32:10.926Z,82.62
2017-12-15T03:34:39.205Z,82.82
2017-12-15T03:37:10.765Z,82.79
2017-12-15T03:39:39.041Z,83.20
2017-12-15T03:42:10.575Z,83.42
2017-12-15T03:44:38.864Z,83.32
2017-12-15T03:47:13.977Z,83.13
2017-12-15T03:49:42.278Z,83.03
2017-12-15T03:52:11.614Z,83.61
2017-12-15T03:54:40.060Z,83.88
2017-12-15T03:57:10.965Z,83.70
2017-12-15T03:59:39.244Z,84.61
2017-12-15T04:02:14.415Z,84.98
2017-12-15T04:04:42.686Z,85.75
2017-12-15T04:07:10.988Z,85.77
2017-12-15T04:09:39.252Z,85.79
2017-12-15T04:12:11.305Z,85.87
2017-12-15T04:14:39.562Z,86.07
2017-12-15T04:17:10.817Z,86.05
2017-12-15T04:19:39.093Z,86.12
2017-12-15T04:22:10.648Z,86.52
2017-12-15T04:24:38.916Z,86.06
2017-12-15T04:27:11.017Z,86.17
2017-12-15T04:29:39.422Z,86.17
2017-12-15T04:32:11.224Z,85.80
2017-12-15T04:34:39.473Z,85.56
2017-12-15T04:37:13.490Z,85.73
2017-12-15T04:39:41.788Z,85.05
2017-12-15T04:42:11.164Z,85.01
2017-12-15T04:44:39.463Z,84.35
2017-12-15T04:47:10.817Z,84.05
2017-12-15T04:49:39.081Z,83.75
2017-12-15T04:52:11.221Z,83.30
2017-12-15T04:54:39.513Z,82.60
2017-12-15T04:57:13.458Z,82.66
2017-12-15T04:59:41.726Z,82.21
2017-12-15T05:02:10.961Z,82.87
2017-12-15T05:04:39.742Z,83.04
2017-12-15T05:07:12.588Z,81.90
2017-12-15T05:09:41.069Z,83.08
2017-12-15T05:12:11.517Z,81.49
2017-12-15T05:14:39.773Z,81.92
2017-12-15T05:17:11.672Z,80.83
2017-12-15T05:19:39.949Z,82.72
2017-12-15T05:22:11.748Z,82.61
2017-12-15T05:24:40.022Z,82.87
2017-12-15T05:27:11.739Z,81.60
2017-12-15T05:29:40.174Z,81.54
2017-12-15T05:32:11.060Z,80.66
2017-12-15T05:34:39.332Z,79.51
2017-12-15T05:37:14.406Z,80.52
2017-12-15T05:39:42.669Z,79.93
2017-12-15T05:42:11.245Z,80.33
2017-12-15T05:44:39.525Z,80.11
2017-12-15T05:47:13.454Z,79.96
2017-12-15T05:49:41.720Z,80.33
2017-12-15T05:52:11.754Z,80.64
2017-12-15T05:54:40.241Z,80.43
2017-12-15T05:57:11.829Z,80.43
2017-12-15T05:59:40.206Z,80.02
2017-12-15T06:02:11.822Z,79.89
2017-12-15T06:04:40.137Z,80.42
2017-12-15T06:07:10.873Z,79.66
2017-12-15T06:09:39.192Z,79.57
2017-12-15T06:12:10.844Z,80.03
2017-12-15T06:14:39.124Z,80.01
2017-12-15T06:17:10.468Z,79.78
2017-12-15T06:19:38.744Z,80.12
2017-12-15T06:22:13.768Z,80.06
2017-12-15T06:24:42.049Z,80.36
2017-12-15T06:27:11.648Z,80.47
2017-12-15T06:29:39.927Z,80.53
2017-12-15T06:32:11.781Z,80.17
2017-12-15T06:34:40.605Z,79.76
2017-12-15T06:37:12.721Z,79.78
2017-12-15T06:39:40.994Z,79.89
2017-12-15T06:42:14.006Z,79.90
2017-12-15T06:44:42.277Z,79.98
2017-12-15T06:47:10.906Z,80.33
2017-12-15T06:49:39.168Z,79.48
2017-12-15T06:52:10.689Z,79.79
2017-12-15T06:54:38.951Z,79.81
2017-12-15T06:57:14.053Z,79.99
2017-12-15T06:59:42.429Z,79.43
2017-12-15T07:02:11.536Z,78.80
2017-12-15T07:04:39.805Z,79.20
2017-12-15T07:07:11.940Z,78.40
2017-12-15T07:09:40.195Z,78.32
2017-12-15T07:12:11.997Z,77.90
2017-12-15T07:14:40.279Z,78.45
2017-12-15T07:17:11.893Z,78.35
2017-12-15T07:19:44.391Z,78.11
2017-12-15T07:22:12.706Z,78.27
2017-12-15T07:24:40.993Z,78.99
2017-12-15T07:27:11.848Z,78.84
2017-12-15T07:29:40.128Z,79.73
2017-12-15T07:32:12.110Z,79.29
2017-12-15T07:34:40.384Z,79.27
2017-12-15T07:37:12.183Z,79.56
2017-12-15T07:39:40.476Z,79.08
2017-12-15T07:42:12.526Z,79.60
2017-12-15T07:44:40.815Z,78.53
2017-12-15T07:47:12.328Z,79.01
2017-12-15T07:49:40.784Z,79.06
2017-12-15T07:52:12.125Z,78.67
2017-12-15T07:54:40.435Z,78.86
2017-12-15T07:57:12.020Z,78.59
2017-12-15T07:59:40.299Z,78.57
2017-12-15T08:02:12.371Z,78.47
2017-12-15T08:04:41.653Z,77.97
2017-12-15T08:07:11.287Z,77.39
2017-12-15T08:09:39.823Z,77.46
2017-12-15T08:12:11.249Z,77.20
2017-12-15T08:14:39.613Z,77.90
2017-12-15T08:17:11.329Z,78.53
2017-12-15T08:19:39.592Z,77.71
2017-12-15T08:22:11.536Z,77.23
2017-12-15T08:24:40.080Z,76.90
2017-12-15T08:27:11.700Z,77.02
2017-12-15T08:29:40.269Z,77.96
2017-12-15T08:32:11.720Z,77.32
2017-12-15T08:34:39.996Z,76.83
2017-12-15T08:37:10.933Z,77.57
2017-12-15T08:39:39.502Z,77.88
2017-12-15T08:42:11.158Z,77.92
2017-12-15T08:44:39.545Z,77.90
2017-12-15T08:47:11.833Z,77.51
2017-12-15T08:49:40.548Z,77.61
2017-12-15T08:52:12.208Z,77.04
2017-12-15T08:54:40.511Z,77.52
2017-12-15T08:57:13.278Z,77.45
2017-12-15T08:59:41.565Z,77.73
2017-12-15T09:02:11.064Z,78.28
2017-12-15T09:04:39.676Z,77.06
2017-12-15T09:07:11.084Z,77.02
2017-12-15T09:09:39.391Z,77.02
2017-12-15T09:12:10.793Z,77.08
2017-12-15T09:14:39.138Z,77.09
2017-12-15T09:17:10.680Z,76.49
2017-12-15T09:19:38.949Z,77.44
2017-12-15T09:22:14.079Z,78.10
2017-12-15T09:24:42.381Z,78.42
2017-12-15T09:27:11.705Z,78.53
2017-12-15T09:29:40.441Z,78.51
2017-12-15T09:32:11.195Z,78.78
2017-12-15T09:34:39.480Z,78.87
2017-12-15T09:37:10.921Z,78.94
2017-12-15T09:39:39.201Z,78.66
2017-12-15T09:42:10.725Z,78.68
2017-12-15T09:44:39.008Z,78.59
2017-12-15T09:47:14.194Z,78.43
2017-12-15T09:49:48.279Z,78.20
2017-12-15T09:52:17.392Z,78.22
2017-12-15T09:54:45.687Z,78.17
2017-12-15T09:57:13.978Z,78.04
2017-12-15T09:59:42.261Z,78.36
2017-12-15T10:02:11.467Z,78.25
2017-12-15T10:04:39.756Z,78.09
2017-12-15T10:07:11.876Z,78.36
2017-12-15T10:09:40.177Z,78.81
2017-12-15T10:12:12.256Z,78.68
2017-12-15T10:14:40.540Z,79.31
2017-12-15T10:17:11.955Z,78.69
2017-12-15T10:19:40.257Z,78.91
2017-12-15T10:22:11.817Z,78.77
2017-12-15T10:24:40.154Z,77.95
2017-12-15T10:27:11.718Z,78.68
2017-12-15T10:29:39.985Z,79.28
2017-12-15T10:32:12.048Z,78.68
2017-12-15T10:34:40.293Z,79.97
2017-12-15T10:37:12.439Z,79.93
2017-12-15T10:39:40.660Z,80.42
2017-12-15T10:42:10.869Z,80.19
2017-12-15T10:44:39.453Z,80.07
2017-12-15T10:47:11.168Z,80.10
2017-12-15T10:49:39.424Z,81.20
2017-12-15T10:52:11.601Z,79.04
2017-12-15T10:54:39.865Z,78.25
2017-12-15T10:57:11.172Z,79.67
2017-12-15T10:59:39.757Z,79.95
2017-12-15T11:02:11.565Z,78.79
2017-12-15T11:04:39.868Z,78.15
2017-12-15T11:07:11.165Z,77.84
2017-12-15T11:09:39.462Z,77.45
2017-12-15T11:12:10.940Z,77.47
2017-12-15T11:14:39.504Z,77.46
2017-12-15T11:17:11.106Z,77.22
2017-12-15T11:19:39.608Z,76.66
2017-12-15T11:22:10.958Z,76.10
2017-12-15T11:24:39.255Z,75.72
2017-12-15T11:27:11.604Z,76.53
2017-12-15T11:29:39.909Z,75.83
2017-12-15T11:32:11.652Z,78.26
2017-12-15T11:34:40.185Z,76.18
2017-12-15T11:37:10.917Z,77.07
2017-12-15T11:39:39.192Z,77.52
2017-12-15T11:42:12.599Z,76.51
2017-12-15T11:44:40.844Z,76.62
2017-12-15T11:47:12.425Z,77.23
2017-12-15T11:49:40.880Z,75.93
2017-12-15T11:52:11.432Z,76.56
2017-12-15T11:54:39.910Z,76.19
2017-12-15T11:57:11.230Z,73.60
2017-12-15T11:59:39.461Z,74.15
2017-12-15T12:02:10.975Z,75.32
2017-12-15T12:04:39.253Z,74.24
2017-12-15T12:07:14.632Z,75.75
2017-12-15T12:09:42.906Z,73.97
2017-12-15T12:12:11.197Z,75.71
2017-12-15T12:14:39.635Z,76.09
2017-12-15T12:17:10.905Z,75.14
2017-12-15T12:19:39.421Z,73.95
2017-12-15T12:22:10.827Z,75.25
2017-12-15T12:24:39.107Z,75.99
2017-12-15T12:27:10.573Z,75.62
2017-12-15T12:29:38.852Z,75.52
2017-12-15T12:32:13.757Z,73.92
2017-12-15T12:34:42.050Z,72.81
2017-12-15T12:37:11.996Z,68.64
2017-12-15T12:39:40.259Z,69.59
2017-12-15T12:42:11.572Z,67.49
2017-12-15T12:44:39.865Z,65.56
2017-12-15T12:47:11.664Z,65.95
2017-12-15T12:49:39.954Z,69.96
2017-12-15T12:52:11.538Z,73.20
2017-12-15T12:54:39.820Z,74.73
2017-12-15T12:57:10.948Z,74.84
2017-12-15T12:59:39.231Z,74.15
2017-12-15T13:02:11.132Z,73.43
2017-12-15T13:04:39.398Z,72.41
2017-12-15T13:07:11.163Z,74.14
2017-12-15T13:09:39.557Z,74.20
2017-12-15T13:12:11.381Z,74.58
2017-12-15T13:14:39.664Z,74.78
2017-12-15T13:17:10.933Z,74.84
2017-12-15T13:19:39.193Z,75.30
2017-12-15T13:22:13.157Z,76.70
2017-12-15T13:24:42.219Z,76.59
2017-12-15T13:27:11.368Z,76.88
2017-12-15T13:29:39.656Z,77.01
2017-12-15T13:32:11.080Z,77.00
2017-12-15T13:34:39.394Z,77.18
2017-12-15T13:37:14.437Z,76.86
2017-12-15T13:39:43.046Z,76.67
2017-12-15T13:42:11.248Z,75.87
2017-12-15T13:44:39.598Z,75.93
2017-12-15T13:47:12.313Z,74.86
2017-12-15T13:49:40.830Z,73.98
2017-12-15T13:52:12.124Z,73.77
2017-12-15T13:54:40.408Z,74.08
2017-12-15T13:57:11.604Z,74.85
2017-12-15T13:59:39.883Z,74.91
2017-12-15T14:02:11.777Z,74.00
2017-12-15T14:04:40.604Z,73.56
2017-12-15T14:07:12.497Z,73.38
2017-12-15T14:09:40.906Z,74.04
2017-12-15T14:12:12.729Z,74.92
2017-12-15T14:14:41.024Z,76.12
2017-12-15T14:17:14.052Z,76.10
2017-12-15T14:19:42.348Z,75.90
2017-12-15T14:22:10.966Z,76.46
2017-12-15T14:24:39.229Z,77.41
2017-12-15T14:27:14.477Z,77.40
2017-12-15T14:29:42.940Z,78.30
2017-12-15T14:32:11.266Z,78.29
2017-12-15T14:34:39.610Z,78.60
2017-12-15T14:37:11.058Z,78.54
2017-12-15T14:39:39.318Z,78.68
2017-12-15T14:42:11.328Z,78.97
2017-12-15T14:44:39.587Z,79.13
2017-12-15T14:47:11.833Z,78.87
2017-12-15T14:49:40.160Z,79.01
2017-12-15T14:52:12.575Z,78.23
2017-12-15T14:54:40.883Z,77.34
2017-12-15T14:57:12.106Z,77.39
2017-12-15T14:59:40.510Z,77.71
2017-12-15T15:02:11.806Z,78.37
2017-12-15T15:04:40.188Z,78.33
2017-12-15T15:07:11.760Z,78.23
2017-12-15T15:09:44.337Z,77.48
2017-12-15T15:12:12.648Z,77.27
2017-12-15T15:14:40.974Z,77.33
2017-12-15T15:17:14.478Z,78.33
2017-12-15T15:19:42.959Z,78.86
2017-12-15T15:22:11.287Z,79.44
2017-12-15T15:24:39.611Z,79.51
2017-12-15T15:27:11.886Z,79.67
2017-12-15T15:29:40.214Z,79.74
2017-12-15T15:32:11.168Z,79.19
2017-12-15T15:34:39.535Z,79.97
2017-12-15T15:37:11.153Z,80.38
2017-12-15T15:39:39.677Z,80.66
2017-12-15T15:42:11.341Z,80.33
2017-12-15T15:44:39.861Z,80.00
2017-12-15T15:47:11.310Z,80.50
2017-12-15T15:49:39.757Z,79.94
2017-12-15T15:52:11.243Z,80.11
2017-12-15T15:54:39.695Z,80.33
2017-12-15T15:57:11.764Z,80.06
2017-12-15T15:59:40.223Z,80.22
2017-12-15T16:02:11.059Z,80.24
2017-12-15T16:04:39.640Z,80.47
2017-12-15T16:07:11.314Z,80.42
2017-12-15T16:09:39.738Z,80.25
2017-12-15T16:12:11.146Z,80.35
2017-12-15T16:14:39.561Z,80.49
2017-12-15T16:17:13.668Z,80.24
2017-12-15T16:19:42.942Z,80.43
2017-12-15T16:22:11.252Z,80.34
2017-12-15T16:24:39.837Z,80.07
2017-12-15T16:27:11.389Z,79.94
2017-12-15T16:29:44.089Z,79.99
2017-12-15T16:32:12.517Z,79.66
2017-12-15T16:34:40.895Z,79.75
2017-12-15T16:37:12.697Z,80.11
2017-12-15T16:39:41.069Z,80.22
2017-12-15T16:42:11.524Z,80.39
2017-12-15T16:44:39.951Z,80.40
2017-12-15T16:47:11.839Z,80.08
2017-12-15T16:49:40.225Z,79.94
2017-12-15T16:52:11.067Z,79.86
2017-12-15T16:54:39.707Z,79.94
2017-12-15T16:57:11.783Z,78.99
2017-12-15T16:59:40.400Z,79.07
2017-12-15T17:02:10.737Z,79.16
2017-12-15T17:04:39.161Z,79.54
2017-12-15T17:07:11.420Z,79.33
2017-12-15T17:09:39.804Z,79.12
2017-12-15T17:12:10.631Z,79.19
2017-12-15T17:14:40.055Z,78.94
2017-12-15T17:17:13.385Z,79.57
2017-12-15T17:19:41.761Z,79.85
2017-12-15T17:22:11.537Z,79.70
2017-12-15T17:24:39.962Z,80.04
2017-12-15T17:27:11.562Z,79.80
2017-12-15T17:29:39.885Z,80.56
2017-12-15T17:32:10.177Z,80.30
2017-12-15T17:34:38.556Z,79.61
2017-12-15T17:37:10.521Z,79.84
2017-12-15T17:39:38.897Z,80.09
2017-12-15T17:42:10.049Z,80.28
2017-12-15T17:44:38.417Z,79.95
2017-12-15T17:47:13.620Z,79.71
2017-12-15T17:49:42.034Z,79.02
2017-12-15T17:52:10.621Z,80.02
2017-12-15T17:54:39.034Z,80.89
2017-12-15T17:57:11.280Z,80.18
2017-12-15T17:59:39.657Z,80.20
2017-12-15T18:02:11.612Z,80.45
2017-12-15T18:04:40.645Z,80.31
2017-12-15T18:07:11.158Z,80.04
2017-12-15T18:09:39.515Z,80.62
2017-12-15T18:12:11.982Z,80.92
2017-12-15T18:14:40.363Z,82.13
2017-12-15T18:17:10.386Z,82.50
2017-12-15T18:19:38.753Z,82.71
2017-12-15T18:22:10.160Z,81.94
2017-12-15T18:24:38.487Z,81.88
2017-12-15T18:27:13.679Z,82.11
2017-12-15T18:29:42.070Z,82.30
2017-12-15T18:32:10.798Z,82.42
2017-12-15T18:34:39.209Z,82.40
2017-12-15T18:37:11.138Z,82.64
2017-12-15T18:39:39.460Z,82.74
2017-12-15T18:42:11.582Z,82.83
2017-12-15T18:44:39.873Z,83.44
2017-12-15T18:47:15.156Z,83.67
2017-12-15T18:49:44.291Z,83.35
2017-12-15T18:52:12.642Z,83.71
2017-12-15T18:54:41.622Z,83.70
2017-12-15T18:57:10.158Z,83.51
2017-12-15T18:59:42.476Z,82.61
2017-12-15T19:02:11.538Z,82.77
2017-12-15T19:04:39.899Z,82.86
2017-12-15T19:07:11.868Z,83.09
2017-12-15T19:09:40.692Z,83.34
2017-12-15T19:12:15.934Z,81.96
2017-12-15T19:14:44.219Z,81.72
2017-12-15T19:17:12.562Z,81.51
2017-12-15T19:19:40.930Z,81.65
2017-12-15T19:22:10.791Z,81.80
2017-12-15T19:24:39.184Z,81.39
2017-12-15T19:27:10.381Z,81.19
2017-12-15T19:29:39.613Z,81.34
2017-12-15T19:32:11.327Z,81.67
2017-12-15T19:34:39.811Z,81.48
2017-12-15T19:37:11.713Z,81.23
2017-12-15T19:39:41.585Z,81.42
2017-12-15T19:42:10.587Z,81.65
2017-12-15T19:44:38.953Z,81.82
2017-12-15T19:47:10.455Z,82.18
2017-12-15T19:49:38.852Z,82.37
2017-12-15T19:52:10.900Z,82.79
2017-12-15T19:54:39.598Z,83.03
2017-12-15T19:57:10.976Z,82.72
2017-12-15T19:59:39.328Z,82.70
2017-12-15T20:02:11.426Z,82.26
2017-12-15T20:04:43.856Z,81.14
2017-12-15T20:07:12.248Z,81.40
2017-12-15T20:09:40.615Z,81.62
2017-12-15T20:12:11.928Z,82.08
2017-12-15T20:14:40.341Z,82.47
2017-12-15T20:17:10.425Z,82.63
2017-12-15T20:19:38.839Z,82.01
2017-12-15T20:22:11.110Z,81.67
2017-12-15T20:24:39.466Z,81.98
2017-12-15T20:27:11.318Z,82.23
2017-12-15T20:29:39.729Z,82.09
2017-12-15T20:32:10.328Z,82.34
2017-12-15T20:34:38.745Z,82.73
2017-12-15T20:37:10.301Z,82.74
2017-12-15T20:39:38.678Z,82.79
2017-12-15T20:42:10.841Z,82.17
2017-12-15T20:44:39.186Z,82.29
2017-12-15T20:47:11.048Z,81.91
2017-12-15T20:49:40.076Z,82.29
2017-12-15T20:52:11.788Z,82.15
2017-12-15T20:54:40.649Z,82.19
2017-12-15T20:57:10.433Z,82.37
2017-12-15T20:59:38.768Z,82.71
2017-12-15T21:02:10.602Z,82.96
2017-12-15T21:04:39.125Z,83.66
2017-12-15T21:07:11.384Z,83.96
2017-12-15T21:09:39.905Z,83.56
2017-12-15T21:12:11.328Z,83.34
2017-12-15T21:14:39.813Z,82.49
2017-12-15T21:17:12.122Z,82.52
2017-12-15T21:19:40.866Z,82.67
2017-12-15T21:22:10.172Z,82.58
2017-12-15T21:24:38.551Z,82.90
2017-12-15T21:27:10.034Z,83.15
2017-12-15T21:29:38.381Z,83.30
2017-12-15T21:32:10.959Z,83.07
2017-12-15T21:34:39.571Z,83.12
2017-12-15T21:37:11.608Z,83.19
2017-12-15T21:39:40.025Z,83.40
2017-12-15T21:42:10.162Z,83.47
2017-12-15T21:44:38.545Z,83.45
2017-12-15T21:47:10.743Z,83.64
2017-12-15T21:49:39.397Z,83.41
2017-12-15T21:52:11.085Z,83.84
2017-12-15T21:54:39.412Z,83.74
2017-12-15T21:57:15.746Z,83.84
2017-12-15T21:59:44.128Z,83.72
2017-12-15T22:02:20.378Z,84.13
2017-12-15T22:04:48.811Z,84.06
2017-12-15T22:07:18.737Z,84.09
2017-12-15T22:09:47.153Z,83.99
2017-12-15T22:12:15.530Z,84.05
2017-12-15T22:14:43.952Z,83.84
2017-12-15T22:17:12.336Z,84.29
2017-12-15T22:19:40.724Z,83.71
2017-12-15T22:22:11.049Z,83.72
2017-12-15T22:24:39.442Z,83.58
2017-12-15T22:27:11.226Z,83.67
2017-12-15T22:29:39.658Z,83.15
2017-12-15T22:32:11.782Z,83.31
2017-12-15T22:34:40.433Z,83.21
2017-12-15T22:37:11.758Z,83.40
2017-12-15T22:39:40.098Z,83.30
2017-12-15T22:42:10.323Z,83.35
2017-12-15T22:44:38.667Z,83.26
2017-12-15T22:47:10.912Z,83.61
2017-12-15T22:49:39.309Z,83.87
2017-12-15T22:52:11.001Z,84.46
2017-12-15T22:54:39.501Z,84.83
2017-12-15T22:57:10.880Z,84.94
2017-12-15T22:59:39.262Z,84.59
2017-12-15T23:02:10.765Z,84.34
2017-12-15T23:04:39.405Z,84.40
2017-12-15T23:07:11.160Z,84.57
2017-12-15T23:09:39.489Z,84.34
2017-12-15T23:12:10.607Z,84.50
2017-12-15T23:14:39.315Z,84.69
2017-12-15T23:17:11.096Z,84.30
2017-12-15T23:19:39.511Z,84.89
2017-12-15T23:22:11.687Z,84.97
2017-12-15T23:24:40.114Z,85.08
2017-12-15T23:27:11.513Z,84.72
2017-12-15T23:29:39.936Z,84.39
2017-12-15T23:32:11.620Z,84.31
2017-12-15T23:34:39.994Z,84.32
2017-12-15T23:37:12.088Z,84.07
2017-12-15T23:39:40.472Z,83.94
2017-12-15T23:42:10.599Z,83.68
2017-12-15T23:44:38.973Z,84.13
2017-12-15T23:47:10.371Z,84.44
2017-12-15T23:49:38.980Z,84.75
2017-12-15T23:52:10.765Z,84.70
2017-12-15T23:54:50.765Z,84.93
2017-12-15T23:57:19.144Z,85.38
2017-12-15T23:59:47.531Z,85.32
